Terminal Aerodrome Forecast
Issued by NWS

Home | Current Version | Previous Version | Text Only | Print | Product List | Glossary On
Versions: 1 2 3 4 5 6 7 8 9 10 11 12 13 14 15 16
386
FTUS43 KMPX 261000 AAA
TAFAXN
TAF AMD
KAXN 261000Z 2610/2706 02014G22KT 6SM -FZRA BR OVC008
     FM261400 01016G24KT 4SM -FZRASN BR OVC008
     FM261600 36014G24KT 4SM -SN BR OVC008
     FM262100 34014KT P6SM -SN OVC010=

USA.gov is the U.S. government's official web portal to all federal, state and local government web resources and services.